Time;durP1;ratioP1;P1;durP2;ratioP2;P2;SDS_P1;SDS_P2;PMS_P1;PMS_P2;Temp;Humidity;BMP_temperature;BMP_pressure;BME280_temperature;BME280_humidity;BME280_pressure;Samples;Min_cycle;Max_cycle;Signal;HPM_P1;HPM_P2
2021/01/22 09:38:26;;;;;;;22.43;11.83;;;5.70;99.90;;;-143.32;100.00;97305.41;4917324;28;20923;-90
2021/01/22 09:40:53;;;;;;;20.00;10.53;;;5.70;99.90;;;-143.32;100.00;97284.94;4960080;29;20796;-91
2021/01/22 09:43:20;;;;;;;24.73;11.17;;;5.70;99.90;;;-143.32;100.00;97332.00;4958655;29;20484;-89
2021/01/22 09:45:50;;;;;;;21.90;11.40;;;5.60;99.90;;;-143.32;100.00;97325.84;4959113;28;20755;-89
2021/01/22 09:48:17;;;;;;;21.53;10.87;;;5.60;99.90;;;-143.32;100.00;97301.31;4957396;29;20516;-90
2021/01/22 09:50:48;;;;;;;23.10;10.97;;;5.50;99.90;;;-143.32;100.00;97307.44;4957862;29;20461;-91
2021/01/22 09:53:15;;;;;;;17.60;10.50;;;5.50;99.90;;;-143.32;100.00;97325.84;4957946;29;20456;-90
2021/01/22 10:03:22;;;;;;;25.60;12.20;;;5.70;99.90;;;-143.32;100.00;97270.63;4922553;29;20475;-92
2021/01/22 11:49:09;;;;;;;23.73;11.50;;;5.90;99.90;;;-143.32;98.89;97307.44;4703601;30;20461;-90
2021/01/22 11:58:52;;;;;;;22.97;12.07;;;6.10;99.90;;;-143.32;98.03;97258.34;4881507;29;20467;-91
2021/01/22 12:01:19;;;;;;;25.77;12.00;;;6.20;99.90;;;-143.32;97.63;97244.03;4904376;29;20816;-92
2021/01/22 12:04:38;;;;;;;27.93;12.40;;;6.30;99.90;;;-143.32;97.55;97264.47;4946751;29;20453;-91
2021/01/22 12:11:51;;;;;;;29.23;11.37;;;6.40;99.90;;;-143.32;96.47;97295.16;4891021;29;20409;-92
2021/01/22 12:14:34;;;;;;;27.50;11.10;;;6.40;99.90;;;-143.32;97.07;97291.06;4943931;29;20490;-89
2021/01/22 12:17:17;;;;;;;24.70;11.10;;;6.40;99.90;;;-143.32;97.38;97233.78;4945944;29;20453;-92
2021/01/22 12:19:52;;;;;;;15.93;9.73;;;6.40;99.90;;;-143.32;97.17;97229.72;4950485;29;20451;-91
2021/01/22 13:33:47;;;;;;;9.23;5.10;;;7.30;99.90;;;-143.32;88.99;97147.88;4952646;29;20453;-91
2021/01/22 13:36:17;;;;;;;12.47;5.73;;;7.30;99.90;;;-143.32;88.17;97166.28;4899780;29;20480;-90
2021/01/22 13:38:48;;;;;;;14.50;5.30;;;7.50;55.70;;;-143.32;88.04;97123.31;4933108;29;20509;-90
2021/01/22 14:25:07;;;;;;;14.30;6.13;;;7.20;1.00;;;-143.32;86.29;97172.44;4907193;29;20528;-91
2021/01/22 14:34:36;;;;;;;10.43;5.30;;;7.00;1.00;;;-143.32;87.01;97186.75;4881757;29;20849;-88
2021/01/22 14:37:03;;;;;;;13.60;6.50;;;7.00;1.00;;;-143.32;86.84;97196.97;4933460;29;20454;-87
2021/01/22 14:39:32;;;;;;;17.00;5.40;;;7.00;1.00;;;-143.32;87.05;97184.69;4937091;29;20454;-89
2021/01/22 14:42:08;;;;;;;14.63;4.67;;;7.00;1.00;;;-143.32;87.06;97192.88;4946099;28;20451;-90
2021/01/22 14:48:16;;;;;;;7.30;4.30;;;6.90;1.00;;;-143.32;85.15;97170.38;4914510;29;21496;-90
2021/01/22 14:50:44;;;;;;;10.03;4.63;;;6.90;99.90;;;-143.32;86.42;97207.19;4953211;29;20450;-91
2021/01/22 14:53:14;;;;;;;16.27;5.47;;;6.80;99.90;;;-143.32;86.98;97194.94;4947193;29;20948;-90
2021/01/22 14:55:41;;;;;;;12.13;5.17;;;6.80;99.90;;;-143.32;87.18;97207.19;4945297;29;20454;-91
2021/01/22 14:58:14;;;;;;;10.93;5.27;;;6.70;1.00;;;-143.32;87.38;97231.75;4949644;29;20466;-89
2021/01/22 15:00:53;;;;;;;10.90;4.27;;;6.60;1.00;;;-143.32;87.44;97241.97;4950663;29;20445;-91
2021/01/22 15:07:30;;;;;;;9.73;4.33;;;6.40;1.00;;;-143.32;86.90;97250.16;4948900;29;20486;-90
2021/01/22 15:10:04;;;;;;;14.33;4.13;;;6.30;1.00;;;-143.32;87.47;97239.94;4948674;29;20454;-90
2021/01/22 15:12:33;;;;;;;10.00;3.90;;;6.40;1.00;;;-143.32;87.61;97231.75;4947694;29;20467;-92
2021/01/22 15:15:07;;;;;;;11.57;4.80;;;6.30;1.00;;;-143.32;88.25;97270.63;4950069;29;20473;-90
2021/01/22 15:17:47;;;;;;;15.10;5.33;;;6.30;99.90;;;-143.32;89.03;97227.66;4952012;29;20494;-91
2021/01/22 15:24:08;;;;;;;15.63;5.00;;;6.10;1.00;;;-143.32;89.86;97270.63;4953431;29;20489;-91
2021/01/22 15:26:37;;;;;;;12.90;5.10;;;6.00;91.50;;;-143.32;90.27;97233.78;4951982;29;20584;-92
2021/01/22 15:29:06;;;;;;;18.50;4.90;;;6.00;99.90;;;-143.32;90.53;97305.41;4952519;29;20489;-91
2021/01/22 15:31:34;;;;;;;8.60;4.70;;;5.90;99.90;;;-143.32;90.99;97305.41;4941820;29;20565;-88
2021/01/22 15:34:33;;;;;;;8.23;4.23;;;5.80;1.00;;;-143.32;90.82;97282.91;4939806;29;20528;-88
2021/01/22 15:44:49;;;;;;;13.93;4.53;;;5.60;62.90;;;-143.32;92.23;97301.31;4925968;29;20438;-93
2021/01/22 15:48:25;;;;;;;14.67;4.67;;;5.40;1.00;;;-143.32;91.96;97301.31;4948966;29;20557;-93
2021/01/22 15:54:47;;;;;;;18.23;5.37;;;5.40;1.00;;;-143.32;92.25;97311.53;4892383;29;20436;-93
2021/01/22 16:01:28;;;;;;;11.67;4.70;;;5.00;99.90;;;-143.32;93.23;97309.50;4895825;29;21048;-92
2021/01/22 16:12:16;;;;;;;11.03;4.73;;;4.90;99.90;;;-143.32;94.91;97332.00;5645435;23;20526;-92
2021/01/22 17:16:41;;;;;;;17.27;8.30;;;4.40;1.00;;;-143.32;96.83;97348.34;5013761;23;20587;-92
2021/01/22 17:19:08;;;;;;;25.43;8.00;;;4.60;1.00;;;-143.32;97.06;97366.78;4938582;29;20473;-91
2021/01/22 17:21:37;;;;;;;25.30;9.53;;;4.40;99.90;;;-143.32;96.97;97346.31;4940313;29;20473;-89
2021/01/22 17:24:20;;;;;;;20.53;8.57;;;4.40;99.90;;;-143.32;97.00;97368.81;4939555;29;20493;-90
2021/01/22 17:26:47;;;;;;;22.33;8.17;;;4.30;99.90;;;-143.32;97.33;97346.31;4939289;29;20470;-91
2021/01/22 17:29:14;;;;;;;15.83;7.73;;;4.30;99.90;;;-143.32;97.18;97311.53;4939128;29;20457;-91
2021/01/22 17:31:42;;;;;;;15.97;8.30;;;4.30;99.90;;;-143.32;97.46;97354.50;4939423;29;20446;-88
2021/01/22 17:37:58;;;;;;;16.57;9.00;;;4.10;99.90;;;-143.32;97.96;97366.78;4938584;29;20462;-92
2021/01/22 17:40:27;;;;;;;20.20;8.37;;;4.20;1.00;;;-143.32;98.28;97344.25;4939986;29;20834;-92
2021/01/22 17:42:58;;;;;;;20.23;9.97;;;4.10;1.00;;;-143.32;98.42;97362.69;4939023;29;20506;-90
2021/01/22 17:45:35;;;;;;;;;;;;;;;;;;;;;
2021/01/22 17:51:47;;;;;;;18.30;11.13;;;4.00;1.00;;;-143.32;98.85;97381.09;4938951;29;20421;-91
2021/01/22 17:58:02;;;;;;;19.40;9.30;;;4.10;1.00;;;-143.32;99.02;97393.38;4926849;29;20450;-91
2021/01/22 18:07:33;;;;;;;19.80;9.43;;;3.80;1.00;;;-143.32;99.47;97379.03;4905882;29;21032;-86
2021/01/22 18:10:02;;;;;;;17.60;10.47;;;3.80;51.30;;;-143.32;99.67;97448.59;4939039;29;20447;-91
2021/01/22 18:16:13;;;;;;;21.20;12.40;;;3.70;99.90;;;-143.32;100.00;97407.69;4939503;29;20541;-93
2021/01/22 18:22:29;;;;;;;40.73;15.00;;;3.60;99.90;;;-143.32;100.00;97397.47;4940850;29;20417;-90
2021/01/22 18:25:12;;;;;;;26.70;12.93;;;3.60;99.90;;;-143.32;99.99;97348.34;4940613;29;20446;-92
2021/01/22 18:27:46;;;;;;;32.63;13.90;;;3.60;99.90;;;-143.32;100.00;97379.03;4945129;29;20482;-90
2021/01/22 18:30:17;;;;;;;22.67;12.93;;;3.60;99.90;;;-143.32;100.00;97450.66;4944224;29;20456;-93
2021/01/22 18:37:26;;;;;;;32.50;15.53;;;3.60;99.90;;;-143.32;100.00;97417.91;4939884;29;20418;-92
2021/01/22 18:39:53;;;;;;;26.40;13.83;;;3.50;99.90;;;-143.32;100.00;97409.72;4945798;29;20458;-89
2021/01/22 18:42:52;;;;;;;37.10;14.70;;;3.60;99.90;;;-143.32;100.00;97432.22;4947221;29;20450;-90
2021/01/22 18:45:26;;;;;;;28.63;13.30;;;3.50;99.90;;;-143.32;100.00;97403.59;4948477;29;20446;-89
2021/01/22 18:47:54;;;;;;;33.10;14.13;;;3.50;99.90;;;-143.32;100.00;97401.53;4950288;29;20481;-88
2021/01/22 18:50:23;;;;;;;24.57;14.07;;;3.50;99.90;;;-143.32;100.00;97393.38;4945290;29;20458;-92
2021/01/22 18:57:16;;;;;;;28.57;14.00;;;3.40;99.90;;;-143.32;100.00;97409.72;4953476;29;20442;-92
2021/01/22 18:59:58;;;;;;;23.17;12.60;;;3.30;99.90;;;-143.32;100.00;97454.75;4907538;29;20515;-92
2021/01/22 19:02:51;;;;;;;27.50;13.30;;;3.30;99.90;;;-143.32;100.00;97383.13;4908321;29;20991;-93
2021/01/22 19:06:01;;;;;;;29.43;11.63;;;3.30;99.90;;;-143.32;100.00;97438.38;4947673;29;20453;-92
2021/01/22 19:08:49;;;;;;;21.97;11.60;;;3.30;99.90;;;-143.32;100.00;97422.00;4943159;29;20525;-93
2021/01/22 19:33:23;;;;;;;26.93;10.00;;;3.30;99.90;;;-143.32;100.00;97419.97;4841737;29;20572;-89
2021/01/22 19:51:06;;;;;;;29.93;12.63;;;3.10;99.90;;;-143.32;100.00;97440.41;4811241;29;20469;-93
2021/01/22 20:01:47;;;;;;;33.07;17.80;;;2.90;99.90;;;-143.32;100.00;97450.66;4844851;29;20436;-93
2021/01/22 20:08:58;;;;;;;33.80;17.03;;;2.70;99.90;;;-143.32;100.00;97452.69;4868120;29;20583;-89
2021/01/22 21:04:12;;;;;;;41.43;17.13;;;2.60;99.90;;;-143.32;100.00;97438.38;4898976;29;20523;-86
2021/01/22 21:06:53;;;;;;;35.67;15.40;;;2.30;99.90;;;-143.32;100.00;97514.06;4874203;29;20527;-87
2021/01/22 21:24:11;;;;;;;34.10;14.77;;;2.20;99.90;;;-143.32;100.00;97462.91;4917129;29;20466;-90
2021/01/22 21:26:59;;;;;;;30.83;16.50;;;2.10;99.90;;;-143.32;100.00;97448.59;4922592;29;20556;-86
2021/01/22 21:29:31;;;;;;;29.87;15.30;;;1.90;99.90;;;-143.32;100.00;97450.66;4931592;29;20466;-88
2021/01/22 21:31:58;;;;;;;28.27;16.17;;;1.80;99.90;;;-143.32;100.00;97503.84;4937390;29;20469;-87
2021/01/22 21:41:31;;;;;;;36.30;18.33;;;1.80;99.90;;;-143.32;100.00;97507.94;4898360;29;20447;-89
2021/01/22 21:43:57;;;;;;;37.23;16.83;;;1.90;99.90;;;-143.32;100.00;97487.47;4898230;29;20432;-87
2021/01/22 21:46:24;;;;;;;33.07;17.43;;;1.90;99.90;;;-143.32;100.00;97487.47;4897408;29;20998;-88
2021/01/22 21:48:51;;;;;;;30.90;16.43;;;2.00;99.90;;;-143.32;100.00;97487.47;4926522;29;20937;-86
2021/01/22 21:51:18;;;;;;;40.90;16.53;;;1.90;99.90;;;-143.32;100.00;97499.75;4937215;29;20786;-85
2021/01/22 21:53:46;;;;;;;35.73;16.53;;;1.90;99.90;;;-143.32;100.00;97516.13;4936956;29;20438;-86
2021/01/22 21:56:13;;;;;;;32.40;15.93;;;1.80;99.90;;;-143.32;100.00;97460.88;4936970;29;20504;-85
2021/01/22 21:58:40;;;;;;;27.13;15.60;;;1.80;99.90;;;-143.32;100.00;97458.84;4937590;29;20949;-87
2021/01/22 22:01:07;;;;;;;38.43;19.77;;;1.80;99.90;;;-143.32;100.00;97485.44;4936925;29;20442;-90
2021/01/22 22:03:34;;;;;;;41.00;18.93;;;1.70;99.90;;;-143.32;100.00;97471.09;4937368;29;20779;-88
2021/01/22 22:06:02;;;;;;;41.83;19.73;;;1.90;99.90;;;-143.32;100.00;97499.75;4936918;29;20438;-89
2021/01/22 22:08:31;;;;;;;40.27;17.50;;;2.00;99.90;;;-143.32;100.00;97460.88;4936794;29;20497;-88
2021/01/22 22:10:58;;;;;;;45.13;17.83;;;2.00;99.90;;;-143.32;100.00;97458.84;4936719;29;20458;-90
2021/01/22 22:13:25;;;;;;;45.63;17.57;;;2.00;99.90;;;-143.32;100.00;97487.47;4937853;29;20442;-88
2021/01/22 22:15:53;;;;;;;25.97;16.40;;;2.00;99.90;;;-143.32;100.00;97501.78;4937082;29;20454;-88
2021/01/22 22:18:20;;;;;;;32.97;15.87;;;2.00;99.90;;;-143.32;100.00;97483.38;4937466;29;20454;-89
2021/01/22 22:20:46;;;;;;;35.80;17.93;;;1.90;99.90;;;-143.32;100.00;97503.84;4937778;29;20454;-90
2021/01/22 22:23:57;;;;;;;33.70;16.00;;;1.80;99.90;;;-143.32;100.00;97495.66;4937411;29;20501;-89
2021/01/22 22:26:23;;;;;;;39.50;16.67;;;1.90;99.90;;;-143.32;100.00;97520.22;4936958;29;20526;-88
2021/01/22 22:28:50;;;;;;;30.47;16.77;;;1.80;99.90;;;-143.32;100.00;97501.78;4936904;29;20474;-90
2021/01/22 22:31:18;;;;;;;30.23;16.37;;;1.70;99.90;;;-143.32;100.00;97485.44;4936412;29;20441;-87
2021/01/22 22:33:45;;;;;;;31.67;15.03;;;1.90;99.90;;;-143.32;100.00;97505.88;4936302;29;20445;-88
2021/01/22 22:36:13;;;;;;;43.07;20.80;;;1.70;99.90;;;-143.32;100.00;97487.47;4936642;29;20443;-88
2021/01/22 22:38:41;;;;;;;59.73;24.87;;;1.90;99.90;;;-143.32;100.00;97507.94;4936632;29;20465;-86
2021/01/22 22:41:08;;;;;;;58.77;21.77;;;1.80;99.90;;;-143.32;100.00;97507.94;4936557;29;20446;-89
2021/01/22 22:43:35;;;;;;;51.20;19.73;;;1.80;99.90;;;-143.32;100.00;97491.56;4938642;29;20450;-89
2021/01/22 22:46:02;;;;;;;45.93;18.70;;;1.80;99.90;;;-143.32;100.00;97456.78;4936313;29;20494;-87
2021/01/22 22:48:29;;;;;;;41.50;18.77;;;1.90;99.90;;;-143.32;100.00;97481.34;4936122;29;20493;-86
2021/01/22 22:50:56;;;;;;;39.70;16.80;;;1.90;99.90;;;-143.32;100.00;97489.53;4936845;29;20453;-89
2021/01/22 22:53:23;;;;;;;44.23;16.50;;;1.90;99.90;;;-143.32;100.00;97493.59;4936483;29;20480;-87
2021/01/22 22:55:50;;;;;;;32.87;15.73;;;1.80;99.90;;;-143.32;100.00;97495.66;4936694;29;20534;-87
2021/01/22 22:58:16;;;;;;;41.27;16.67;;;2.00;99.90;;;-143.32;100.00;97536.56;4936421;29;20802;-89
2021/01/22 23:00:43;;;;;;;31.47;13.47;;;2.00;99.90;;;-143.32;100.00;97469.06;4936696;29;20469;-89
2021/01/22 23:03:10;;;;;;;27.23;13.30;;;2.00;99.90;;;-143.32;100.00;97516.13;4936304;29;20446;-87
2021/01/22 23:06:09;;;;;;;24.73;12.37;;;2.00;99.90;;;-143.32;100.00;97481.34;4936603;29;20454;-85
2021/01/22 23:12:17;;;;;;;32.47;14.20;;;2.00;99.90;;;-143.32;100.00;97501.78;4936485;29;20453;-88
2021/01/22 23:14:44;;;;;;;34.37;13.80;;;2.00;99.90;;;-143.32;100.00;97489.53;4936461;29;20450;-89
2021/01/22 23:17:10;;;;;;;31.07;12.70;;;2.00;99.90;;;-143.32;100.00;97485.44;4936676;29;20453;-89
2021/01/22 23:19:37;;;;;;;23.20;11.97;;;2.10;99.90;;;-143.32;100.00;97479.28;4939832;29;20442;-85
2021/01/22 23:22:05;;;;;;;28.73;13.20;;;2.10;99.90;;;-143.32;100.00;52530.00;4940033;29;20434;-91
2021/01/22 23:24:32;;;;;;;21.80;12.80;;;2.10;99.90;;;-143.32;100.00;53277.19;4940011;29;20457;-88
2021/01/22 23:26:59;;;;;;;25.00;12.70;;;2.00;99.90;;;-143.32;100.00;52475.50;4939849;29;20478;-90
2021/01/22 23:33:06;;;;;;;23.30;13.43;;;2.00;99.90;;;-143.32;100.00;52721.84;4939912;29;20474;-85
2021/01/22 23:35:34;;;;;;;23.93;12.47;;;2.00;99.90;;;-143.32;100.00;52796.56;4939525;29;20438;-86
2021/01/22 23:38:03;;;;;;;25.40;12.97;;;2.00;99.90;;;-143.32;100.00;52788.47;4939821;29;20952;-88
2021/01/22 23:40:32;;;;;;;31.73;14.47;;;2.00;99.90;;;-143.32;100.00;52889.44;4939805;29;20454;-87
2021/01/22 23:42:59;;;;;;;25.80;13.40;;;2.20;99.90;;;-143.32;100.00;52723.84;4939593;29;20466;-87
2021/01/22 23:45:26;;;;;;;26.53;14.20;;;2.00;99.90;;;-143.32;100.00;52911.66;4940104;29;20446;-87
2021/01/22 23:47:55;;;;;;;24.83;13.40;;;2.00;99.90;;;-143.32;100.00;52927.81;4939136;29;20490;-87
2021/01/22 23:50:22;;;;;;;23.63;12.60;;;2.20;99.90;;;-143.32;100.00;53000.50;4939888;29;20468;-88
2021/01/22 23:52:48;;;;;;;30.50;12.57;;;2.00;99.90;;;-143.32;100.00;52976.28;4939662;29;20442;-88
2021/01/22 23:55:16;;;;;;;24.43;12.30;;;2.00;99.90;;;-143.32;100.00;52978.31;4939226;29;20438;-87
2021/01/22 23:57:47;;;;;;;29.63;15.60;;;2.00;99.90;;;-143.32;100.00;52943.97;4939270;29;20498;-88
